Time,TemperatureF,DewpointF,PressureIn,WindDirection,WindDirectionDegrees,WindSpeedMPH,WindSpeedGustMPH,Humidity,HourlyPrecipIn,Conditions,Clouds,dailyrainin,SoftwareType,DateUTC
2013-08-05 00:00:00,57.8,56.7,30.11,ENE,77,0.0,1.0,96,0.00,,---,0.00,VWS V14.01,2013-08-05 05:00:00,
2013-08-05 00:02:00,57.9,56.8,30.11,ENE,77,0.0,1.0,96,0.00,,---,0.00,VWS V14.01,2013-08-05 05:02:00,
2013-08-05 00:07:00,57.9,56.8,30.11,ENE,77,0.0,1.0,96,0.00,,---,0.00,VWS V14.01,2013-08-05 05:07:00,
2013-08-05 00:11:00,58.0,56.9,30.11,ENE,77,0.0,1.0,96,0.00,,---,0.00,VWS V14.01,2013-08-05 05:11:00,
2013-08-05 00:16:00,57.9,56.5,30.11,ENE,77,0.0,1.0,95,0.00,,---,0.00,VWS V14.01,2013-08-05 05:16:00,
2013-08-05 00:21:00,57.6,55.9,30.11,ENE,76,0.0,1.0,94,0.00,,---,0.00,VWS V14.01,2013-08-05 05:21:00,
2013-08-05 00:27:00,57.5,55.8,30.11,ENE,77,0.0,1.0,94,0.00,,---,0.00,VWS V14.01,2013-08-05 05:27:00,
2013-08-05 00:30:00,57.5,55.8,30.11,ENE,77,0.0,1.0,94,0.00,,---,0.00,VWS V14.01,2013-08-05 05:30:00,
2013-08-05 00:31:00,57.7,56.0,30.11,ENE,76,0.0,0.0,94,0.00,,---,0.00,VWS V14.01,2013-08-05 05:31:00,
2013-08-05 00:37:00,57.7,55.7,30.11,ENE,77,0.0,0.0,93,0.00,,---,0.00,VWS V14.01,2013-08-05 05:37:00,
2013-08-05 00:41:00,57.5,55.5,30.11,ENE,76,0.0,0.0,93,0.00,,---,0.00,VWS V14.01,2013-08-05 05:41:00,
2013-08-05 00:47:00,57.7,55.7,30.11,ENE,77,0.0,0.0,93,0.00,,---,0.00,VWS V14.01,2013-08-05 05:47:00,
2013-08-05 00:52:00,58.1,56.1,30.11,ENE,76,0.0,0.0,93,0.00,,---,0.00,VWS V14.01,2013-08-05 05:52:00,
2013-08-05 00:57:00,58.2,56.2,30.11,ENE,76,0.0,0.0,93,0.00,,---,0.00,VWS V14.01,2013-08-05 05:57:00,
2013-08-05 01:00:00,58.2,56.2,30.11,ENE,76,0.0,0.0,93,0.00,,---,0.00,VWS V14.01,2013-08-05 06:00:00,
2013-08-05 01:02:00,57.9,55.9,30.11,ENE,77,0.0,0.0,93,0.00,,---,0.00,VWS V14.01,2013-08-05 06:02:00,
2013-08-05 01:06:00,57.6,55.3,30.11,ENE,77,0.0,0.0,92,0.00,,---,0.00,VWS V14.01,2013-08-05 06:06:00,
2013-08-05 01:12:00,57.2,54.9,30.11,ENE,77,0.0,0.0,92,0.00,,---,0.00,VWS V14.01,2013-08-05 06:12:00,
2013-08-05 01:17:00,56.8,54.5,30.11,ENE,76,0.0,0.0,92,0.00,,---,0.00,VWS V14.01,2013-08-05 06:17:00,
2013-08-05 01:22:00,56.6,54.6,30.11,ENE,76,0.0,0.0,93,0.00,,---,0.00,VWS V14.01,2013-08-05 06:22:00,
2013-08-05 01:27:00,56.5,54.8,30.11,ENE,77,0.0,0.0,94,0.00,,---,0.00,VWS V14.01,2013-08-05 06:27:00,
2013-08-05 01:30:00,56.5,54.8,30.11,ENE,77,0.0,0.0,94,0.00,,---,0.00,VWS V14.01,2013-08-05 06:30:00,
2013-08-05 01:32:00,56.3,54.3,30.11,ENE,76,0.0,0.0,93,0.00,,---,0.00,VWS V14.01,2013-08-05 06:32:00,
2013-08-05 01:37:00,56.1,54.1,30.10,ENE,77,0.0,0.0,93,0.00,,---,0.00,VWS V14.01,2013-08-05 06:37:00,
2013-08-05 01:42:00,55.7,53.7,30.10,ENE,77,0.0,0.0,93,0.00,,---,0.00,VWS V14.01,2013-08-05 06:42:00,
2013-08-05 01:47:00,55.4,53.7,30.11,ENE,77,0.0,0.0,94,0.00,,---,0.00,VWS V14.01,2013-08-05 06:47:00,
2013-08-05 01:52:00,54.9,52.9,30.11,ENE,77,0.0,0.0,93,0.00,,---,0.00,VWS V14.01,2013-08-05 06:52:00,
2013-08-05 01:57:00,54.3,52.3,30.11,ENE,77,0.0,0.0,93,0.00,,---,0.00,VWS V14.01,2013-08-05 06:57:00,
2013-08-05 02:00:00,54.3,52.3,30.11,ENE,77,0.0,0.0,93,0.00,,---,0.00,VWS V14.01,2013-08-05 07:00:00,
2013-08-05 02:02:00,54.1,52.4,30.10,ENE,77,0.0,0.0,94,0.00,,---,0.00,VWS V14.01,2013-08-05 07:02:00,
2013-08-05 02:07:00,54.2,52.8,30.11,ENE,77,0.0,0.0,95,0.00,,---,0.00,VWS V14.01,2013-08-05 07:07:00,
2013-08-05 02:12:00,54.3,53.2,30.10,ENE,77,0.0,0.0,96,0.00,,---,0.00,VWS V14.01,2013-08-05 07:12:00,
2013-08-05 02:17:00,54.4,53.3,30.10,ENE,76,0.0,0.0,96,0.00,,---,0.00,VWS V14.01,2013-08-05 07:17:00,
2013-08-05 02:22:00,54.3,53.2,30.10,ENE,76,0.0,0.0,96,0.00,,---,0.00,VWS V14.01,2013-08-05 07:22:00,
2013-08-05 02:27:00,54.2,53.1,30.10,ENE,77,0.0,0.0,96,0.00,,---,0.00,VWS V14.01,2013-08-05 07:27:00,
2013-08-05 02:30:00,54.2,53.1,30.10,ENE,77,0.0,0.0,96,0.00,,---,0.00,VWS V14.01,2013-08-05 07:30:00,
2013-08-05 02:32:00,54.0,52.9,30.10,ENE,77,0.0,0.0,96,0.00,,---,0.00,VWS V14.01,2013-08-05 07:32:00,
2013-08-05 02:36:00,53.6,52.5,30.10,ENE,77,0.0,0.0,96,0.00,,---,0.00,VWS V14.01,2013-08-05 07:36:00,
2013-08-05 02:42:00,53.2,52.1,30.11,ENE,77,0.0,0.0,96,0.00,,---,0.00,VWS V14.01,2013-08-05 07:42:00,
2013-08-05 02:47:00,52.9,51.8,30.11,ENE,77,0.0,0.0,96,0.00,,---,0.00,VWS V14.01,2013-08-05 07:47:00,
2013-08-05 02:52:00,52.6,51.5,30.10,ENE,77,0.0,0.0,96,0.00,,---,0.00,VWS V14.01,2013-08-05 07:52:00,
2013-08-05 02:57:00,52.5,51.4,30.10,ENE,77,0.0,0.0,96,0.00,,---,0.00,VWS V14.01,2013-08-05 07:57:00,
2013-08-05 03:00:00,52.5,51.4,30.10,ENE,76,0.0,0.0,96,0.00,,---,0.00,VWS V14.01,2013-08-05 08:00:00,
2013-08-05 03:02:00,52.8,52.0,30.10,ENE,77,0.0,0.0,97,0.00,,---,0.00,VWS V14.01,2013-08-05 08:02:00,
2013-08-05 03:07:00,53.0,52.2,30.11,ENE,77,0.0,0.0,97,0.00,,---,0.00,VWS V14.01,2013-08-05 08:07:00,
2013-08-05 03:12:00,53.3,52.5,30.10,ENE,77,0.0,0.0,97,0.00,,---,0.00,VWS V14.01,2013-08-05 08:12:00,
2013-08-05 03:17:00,53.7,53.2,30.10,ENE,77,0.0,0.0,98,0.00,,---,0.00,VWS V14.01,2013-08-05 08:17:00,
2013-08-05 03:22:00,53.9,53.3,30.10,ENE,77,0.0,0.0,98,0.00,,---,0.00,VWS V14.01,2013-08-05 08:22:00,
2013-08-05 03:27:00,53.7,52.9,30.10,ENE,77,0.0,0.0,97,0.00,,---,0.00,VWS V14.01,2013-08-05 08:27:00,
2013-08-05 03:30:00,53.7,52.9,30.10,ENE,77,0.0,0.0,97,0.00,,---,0.00,VWS V14.01,2013-08-05 08:30:00,
2013-08-05 03:32:00,53.8,53.0,30.10,ENE,77,0.0,0.0,97,0.00,,---,0.00,VWS V14.01,2013-08-05 08:32:00,
2013-08-05 03:37:00,53.8,53.2,30.10,ENE,76,0.0,0.0,98,0.00,,---,0.00,VWS V14.01,2013-08-05 08:37:00,
2013-08-05 03:42:00,53.6,52.8,30.10,ENE,77,0.0,0.0,97,0.00,,---,0.00,VWS V14.01,2013-08-05 08:42:00,
2013-08-05 03:47:00,53.2,52.4,30.10,ENE,77,0.0,0.0,97,0.00,,---,0.00,VWS V14.01,2013-08-05 08:47:00,
2013-08-05 03:52:00,52.9,52.1,30.10,ENE,77,0.0,0.0,97,0.00,,---,0.00,VWS V14.01,2013-08-05 08:52:00,
2013-08-05 03:57:00,52.6,51.8,30.10,ENE,77,0.0,0.0,97,0.00,,---,0.00,VWS V14.01,2013-08-05 08:57:00,
2013-08-05 04:00:00,52.6,51.8,30.10,ENE,77,0.0,0.0,97,0.00,,---,0.00,VWS V14.01,2013-08-05 09:00:00,
2013-08-05 04:02:00,53.1,52.5,30.10,ENE,77,0.0,0.0,98,0.00,,---,0.00,VWS V14.01,2013-08-05 09:02:00,
2013-08-05 04:07:00,53.4,52.8,30.10,ENE,77,0.0,0.0,98,0.00,,---,0.00,VWS V14.01,2013-08-05 09:07:00,
2013-08-05 04:12:00,53.6,53.0,30.10,ENE,77,0.0,0.0,98,0.00,,---,0.00,VWS V14.01,2013-08-05 09:12:00,
2013-08-05 04:17:00,53.7,53.2,30.09,ENE,77,0.0,0.0,98,0.00,,---,0.00,VWS V14.01,2013-08-05 09:17:00,
2013-08-05 04:23:00,53.8,53.2,30.09,ENE,77,0.0,0.0,98,0.00,,---,0.00,VWS V14.01,2013-08-05 09:23:00,
2013-08-05 04:27:00,53.9,53.3,30.09,ENE,77,0.0,0.0,98,0.00,,---,0.00,VWS V14.01,2013-08-05 09:27:00,
2013-08-05 04:30:00,53.9,53.3,30.09,ENE,77,0.0,0.0,98,0.00,,---,0.00,VWS V14.01,2013-08-05 09:30:00,
2013-08-05 04:33:00,53.9,53.3,30.09,ENE,76,0.0,0.0,98,0.00,,---,0.00,VWS V14.01,2013-08-05 09:33:00,
2013-08-05 04:38:00,53.9,53.3,30.10,ENE,77,0.0,0.0,98,0.00,,---,0.00,VWS V14.01,2013-08-05 09:38:00,
2013-08-05 04:43:00,53.8,53.2,30.10,ENE,77,0.0,0.0,98,0.00,,---,0.00,VWS V14.01,2013-08-05 09:43:00,
2013-08-05 04:48:00,53.6,53.0,30.10,ENE,77,0.0,0.0,98,0.00,,---,0.00,VWS V14.01,2013-08-05 09:48:00,
2013-08-05 04:53:00,53.4,52.8,30.10,ENE,77,0.0,0.0,98,0.00,,---,0.00,VWS V14.01,2013-08-05 09:53:00,
2013-08-05 04:58:00,53.4,52.8,30.10,ENE,77,0.0,0.0,98,0.00,,---,0.00,VWS V14.01,2013-08-05 09:58:00,
2013-08-05 05:00:00,53.4,52.8,30.10,ENE,77,0.0,0.0,98,0.00,,---,0.00,VWS V14.01,2013-08-05 10:00:00,
2013-08-05 05:03:00,53.4,52.8,30.11,ENE,77,0.0,0.0,98,0.00,,---,0.00,VWS V14.01,2013-08-05 10:03:00,
2013-08-05 05:08:00,53.4,52.8,30.10,ENE,77,0.0,0.0,98,0.00,,---,0.00,VWS V14.01,2013-08-05 10:08:00,
2013-08-05 05:13:00,53.5,53.2,30.11,ENE,77,0.0,0.0,99,0.00,,---,0.00,VWS V14.01,2013-08-05 10:13:00,
2013-08-05 05:18:00,53.6,53.3,30.10,ENE,76,0.0,0.0,99,0.00,,---,0.00,VWS V14.01,2013-08-05 10:18:00,
2013-08-05 05:23:00,53.6,53.3,30.11,ENE,77,0.0,0.0,99,0.00,,---,0.00,VWS V14.01,2013-08-05 10:23:00,
2013-08-05 05:28:00,53.4,53.1,30.10,ENE,77,0.0,0.0,99,0.00,,---,0.00,VWS V14.01,2013-08-05 10:28:00,
2013-08-05 05:30:00,53.5,53.2,30.11,ENE,76,0.0,0.0,99,0.00,,---,0.00,VWS V14.01,2013-08-05 10:30:00,
2013-08-05 05:33:00,53.3,52.8,30.10,ENE,77,0.0,0.0,98,0.00,,---,0.00,VWS V14.01,2013-08-05 10:33:00,
2013-08-05 05:39:00,53.4,53.1,30.11,ENE,77,0.0,0.0,99,0.00,,---,0.00,VWS V14.01,2013-08-05 10:39:00,
2013-08-05 05:44:00,53.7,53.4,30.10,ENE,77,0.0,0.0,99,0.00,,---,0.00,VWS V14.01,2013-08-05 10:44:00,
2013-08-05 05:49:00,53.9,53.6,30.10,ENE,77,0.0,0.0,99,0.00,,---,0.00,VWS V14.01,2013-08-05 10:49:00,
2013-08-05 05:54:00,53.9,53.6,30.10,ENE,76,0.0,0.0,99,0.00,,---,0.00,VWS V14.01,2013-08-05 10:54:00,
2013-08-05 05:59:00,53.8,53.5,30.11,ENE,77,0.0,0.0,99,0.00,,---,0.00,VWS V14.01,2013-08-05 10:59:00,
2013-08-05 06:00:00,53.9,53.6,30.10,ENE,77,0.0,0.0,99,0.00,,---,0.00,VWS V14.01,2013-08-05 11:00:00,
2013-08-05 06:05:00,53.9,53.6,30.11,ENE,77,0.0,0.0,99,0.00,,---,0.00,VWS V14.01,2013-08-05 11:05:00,
2013-08-05 06:09:00,54.2,53.9,30.10,ENE,76,0.0,0.0,99,0.00,,---,0.00,VWS V14.01,2013-08-05 11:09:00,
2013-08-05 06:15:00,54.3,54.0,30.10,ENE,77,0.0,0.0,99,0.00,,---,0.00,VWS V14.01,2013-08-05 11:15:00,
2013-08-05 06:19:00,54.4,54.1,30.10,ENE,77,0.0,0.0,99,0.00,,---,0.00,VWS V14.01,2013-08-05 11:19:00,
2013-08-05 06:25:00,54.3,54.0,30.10,ENE,77,0.0,0.0,99,0.00,,---,0.00,VWS V14.01,2013-08-05 11:25:00,
2013-08-05 06:30:00,54.4,54.1,30.10,ENE,77,0.0,0.0,99,0.00,,---,0.00,VWS V14.01,2013-08-05 11:30:00,
2013-08-05 06:35:00,54.5,54.2,30.10,ENE,77,0.0,0.0,99,0.00,,---,0.00,VWS V14.01,2013-08-05 11:35:00,
2013-08-05 06:39:00,54.6,54.3,30.10,ENE,77,0.0,0.0,99,0.00,,---,0.00,VWS V14.01,2013-08-05 11:39:00,
2013-08-05 06:44:00,54.9,54.6,30.10,ENE,77,0.0,0.0,99,0.00,,---,0.00,VWS V14.01,2013-08-05 11:44:00,
2013-08-05 06:50:00,55.3,55.0,30.10,ENE,77,0.0,0.0,99,0.00,,---,0.00,VWS V14.01,2013-08-05 11:50:00,
2013-08-05 06:55:00,56.5,56.2,30.11,ENE,77,0.0,0.0,99,0.00,,---,0.00,VWS V14.01,2013-08-05 11:55:00,
2013-08-05 07:00:00,57.6,57.6,30.11,ENE,76,0.0,0.0,100,0.00,,---,0.00,VWS V14.01,2013-08-05 12:00:00,
2013-08-05 07:05:00,58.5,58.5,30.11,ENE,77,0.0,0.0,100,0.00,,---,0.00,VWS V14.01,2013-08-05 12:05:00,
2013-08-05 07:10:00,58.3,58.0,30.11,ENE,76,0.0,0.0,99,0.00,,---,0.00,VWS V14.01,2013-08-05 12:10:00,
2013-08-05 07:15:00,58.5,58.2,30.11,ENE,77,0.0,1.0,99,0.00,,---,0.00,VWS V14.01,2013-08-05 12:15:00,
2013-08-05 07:20:00,58.9,58.6,30.10,ENE,76,0.0,1.0,99,0.00,,---,0.00,VWS V14.01,2013-08-05 12:20:00,
2013-08-05 07:25:00,59.2,58.6,30.10,SSW,210,0.0,1.0,98,0.00,,---,0.00,VWS V14.01,2013-08-05 12:25:00,
2013-08-05 07:30:00,59.6,58.8,30.10,SW,228,0.0,1.0,97,0.00,,---,0.00,VWS V14.01,2013-08-05 12:30:00,
2013-08-05 07:35:00,60.4,59.3,30.10,WSW,256,0.0,1.0,96,0.00,,---,0.00,VWS V14.01,2013-08-05 12:35:00,
2013-08-05 07:40:00,61.2,59.2,30.10,West,273,2.0,2.0,93,0.00,,---,0.00,VWS V14.01,2013-08-05 12:40:00,
2013-08-05 07:45:00,61.6,58.6,30.10,SSW,201,0.0,3.0,90,0.00,,---,0.00,VWS V14.01,2013-08-05 12:45:00,
2013-08-05 07:50:00,62.4,58.8,30.10,SSE,150,1.0,3.0,88,0.00,,---,0.00,VWS V14.01,2013-08-05 12:50:00,
2013-08-05 07:55:00,63.3,59.0,30.10,SW,214,0.0,3.0,86,0.00,,---,0.00,VWS V14.01,2013-08-05 12:55:00,
2013-08-05 08:00:00,64.4,59.5,30.10,SW,217,0.0,0.0,84,0.00,,---,0.00,VWS V14.01,2013-08-05 13:00:00,
2013-08-05 08:05:00,65.4,59.8,30.10,NNW,340,0.0,0.0,82,0.00,,---,0.00,VWS V14.01,2013-08-05 13:05:00,
2013-08-05 08:10:00,65.8,59.1,30.10,NNW,329,0.0,0.0,79,0.00,,---,0.00,VWS V14.01,2013-08-05 13:10:00,
2013-08-05 08:15:00,66.6,59.9,30.10,East,96,1.0,2.0,79,0.00,,---,0.00,VWS V14.01,2013-08-05 13:15:00,
2013-08-05 08:21:00,67.1,60.7,30.10,ENE,57,0.0,2.0,80,0.00,,---,0.00,VWS V14.01,2013-08-05 13:21:00,
2013-08-05 08:25:00,67.3,59.5,30.10,South,170,0.0,3.0,76,0.00,,---,0.00,VWS V14.01,2013-08-05 13:25:00,
2013-08-05 08:30:00,67.4,59.6,30.10,West,276,2.0,5.0,76,0.00,,---,0.00,VWS V14.01,2013-08-05 13:30:00,
2013-08-05 08:35:00,67.2,59.8,30.10,SW,225,5.0,5.0,77,0.00,,---,0.00,VWS V14.01,2013-08-05 13:35:00,
2013-08-05 08:40:00,67.0,59.6,30.10,West,267,4.0,5.0,77,0.00,,---,0.00,VWS V14.01,2013-08-05 13:40:00,
2013-08-05 08:45:00,66.9,59.5,30.10,SSE,156,0.0,5.0,77,0.00,,---,0.00,VWS V14.01,2013-08-05 13:45:00,
2013-08-05 08:51:00,67.2,59.8,30.10,WNW,297,1.0,5.0,77,0.00,,---,0.00,VWS V14.01,2013-08-05 13:51:00,
2013-08-05 08:56:00,67.4,60.0,30.10,SSW,207,2.0,5.0,77,0.00,,---,0.00,VWS V14.01,2013-08-05 13:56:00,
2013-08-05 09:00:00,67.4,60.0,30.10,WSW,255,1.0,5.0,77,0.00,,---,0.00,VWS V14.01,2013-08-05 14:00:00,
2013-08-05 09:01:00,67.5,60.0,30.10,SSW,201,2.0,5.0,77,0.00,,---,0.00,VWS V14.01,2013-08-05 14:01:00,
2013-08-05 09:06:00,67.5,59.7,30.10,WSW,249,2.0,5.0,76,0.00,,---,0.00,VWS V14.01,2013-08-05 14:06:00,
2013-08-05 09:11:00,67.9,60.4,30.10,WSW,255,0.0,5.0,77,0.00,,---,0.00,VWS V14.01,2013-08-05 14:11:00,
2013-08-05 09:16:00,68.4,60.5,30.10,WSW,245,2.0,5.0,76,0.00,,---,0.00,VWS V14.01,2013-08-05 14:16:00,
2013-08-05 09:21:00,68.7,60.1,30.09,SW,214,4.0,5.0,74,0.00,,---,0.00,VWS V14.01,2013-08-05 14:21:00,
2013-08-05 09:27:00,68.8,60.6,30.10,South,174,1.0,5.0,75,0.00,,---,0.00,VWS V14.01,2013-08-05 14:27:00,
2013-08-05 09:30:00,68.8,60.9,30.10,SSE,163,0.0,5.0,76,0.00,,---,0.00,VWS V14.01,2013-08-05 14:30:00,
2013-08-05 09:32:00,69.2,60.2,30.09,SSW,194,0.0,2.0,73,0.00,,---,0.00,VWS V14.01,2013-08-05 14:32:00,
2013-08-05 09:36:00,69.5,61.6,30.09,ESE,103,1.0,3.0,76,0.00,,---,0.00,VWS V14.01,2013-08-05 14:36:00,
2013-08-05 09:42:00,69.8,61.5,30.09,ENE,77,1.0,3.0,75,0.00,,---,0.00,VWS V14.01,2013-08-05 14:42:00,
2013-08-05 09:47:00,70.0,61.3,30.09,SW,231,1.0,4.0,74,0.00,,---,0.00,VWS V14.01,2013-08-05 14:47:00,
2013-08-05 09:52:00,70.2,60.8,30.09,SSW,201,0.0,4.0,72,0.00,,---,0.00,VWS V14.01,2013-08-05 14:52:00,
2013-08-05 09:57:00,70.7,60.8,30.09,WSW,245,2.0,4.0,71,0.00,,---,0.00,VWS V14.01,2013-08-05 14:57:00,
2013-08-05 10:00:00,70.8,60.9,30.09,SW,214,2.0,4.0,71,0.00,,---,0.00,VWS V14.01,2013-08-05 15:00:00,
2013-08-05 10:02:00,70.8,60.1,30.09,WNW,288,1.0,4.0,69,0.00,,---,0.00,VWS V14.01,2013-08-05 15:02:00,
2013-08-05 10:07:00,70.9,60.2,30.09,SSE,166,1.0,4.0,69,0.00,,---,0.00,VWS V14.01,2013-08-05 15:07:00,
2013-08-05 10:12:00,71.1,60.4,30.09,WNW,298,3.0,4.0,69,0.00,,---,0.00,VWS V14.01,2013-08-05 15:12:00,
2013-08-05 10:17:00,71.1,60.8,30.09,SSE,162,2.0,4.0,70,0.00,,---,0.00,VWS V14.01,2013-08-05 15:17:00,
2013-08-05 10:22:00,71.4,59.9,30.09,SSW,204,2.0,5.0,67,0.00,,---,0.00,VWS V14.01,2013-08-05 15:22:00,
2013-08-05 10:27:00,71.5,60.0,30.09,SSW,207,1.0,2.0,67,0.00,,---,0.00,VWS V14.01,2013-08-05 15:27:00,
2013-08-05 10:30:00,71.4,60.3,30.08,SW,218,2.0,5.0,68,0.00,,---,0.00,VWS V14.01,2013-08-05 15:30:00,
2013-08-05 10:32:00,72.0,60.5,30.08,SW,224,1.0,3.0,67,0.00,,---,0.00,VWS V14.01,2013-08-05 15:32:00,
2013-08-05 10:37:00,71.7,58.9,30.08,WNW,290,2.0,5.0,64,0.00,,---,0.00,VWS V14.01,2013-08-05 15:37:00,
2013-08-05 10:43:00,71.4,59.9,30.08,SSE,150,2.0,5.0,67,0.00,,---,0.00,VWS V14.01,2013-08-05 15:43:00,
2013-08-05 10:47:00,71.8,60.3,30.08,SE,139,2.0,5.0,67,0.00,,---,0.00,VWS V14.01,2013-08-05 15:47:00,
2013-08-05 10:53:00,72.3,59.0,30.08,WSW,254,2.0,7.0,63,0.00,,---,0.00,VWS V14.01,2013-08-05 15:53:00,
2013-08-05 10:58:00,72.6,59.3,30.08,SW,235,2.0,3.0,63,0.00,,---,0.00,VWS V14.01,2013-08-05 15:58:00,
2013-08-05 11:00:00,72.4,60.4,30.08,SW,229,2.0,7.0,66,0.00,,---,0.00,VWS V14.01,2013-08-05 16:00:00,
2013-08-05 11:03:00,73.0,59.7,30.08,NW,305,1.0,4.0,63,0.00,,---,0.00,VWS V14.01,2013-08-05 16:03:00,
2013-08-05 11:08:00,73.1,57.9,30.08,ENE,60,2.0,6.0,59,0.00,,---,0.00,VWS V14.01,2013-08-05 16:08:00,
2013-08-05 11:13:00,73.2,55.1,30.07,SSE,152,5.0,6.0,53,0.00,,---,0.00,VWS V14.01,2013-08-05 16:13:00,
2013-08-05 11:18:00,73.6,58.4,30.07,South,173,1.0,6.0,59,0.00,,---,0.00,VWS V14.01,2013-08-05 16:18:00,
2013-08-05 11:23:00,74.2,57.0,30.07,SSW,211,2.0,6.0,55,0.00,,---,0.00,VWS V14.01,2013-08-05 16:23:00,
2013-08-05 11:28:00,73.9,57.2,30.07,SSW,205,4.0,6.0,56,0.00,,---,0.00,VWS V14.01,2013-08-05 16:28:00,
2013-08-05 11:30:00,74.0,55.8,30.07,NW,308,4.0,6.0,53,0.00,,---,0.00,VWS V14.01,2013-08-05 16:30:00,
2013-08-05 11:33:00,73.8,55.6,30.07,South,176,1.0,6.0,53,0.00,,---,0.00,VWS V14.01,2013-08-05 16:33:00,
2013-08-05 11:39:00,74.3,56.6,30.06,SW,214,1.0,6.0,54,0.00,,---,0.00,VWS V14.01,2013-08-05 16:39:00,
2013-08-05 11:44:00,74.2,55.5,30.06,WNW,301,3.0,6.0,52,0.00,,---,0.00,VWS V14.01,2013-08-05 16:44:00,
2013-08-05 11:48:00,73.9,56.2,30.06,SSE,167,1.0,6.0,54,0.00,,---,0.00,VWS V14.01,2013-08-05 16:48:00,
2013-08-05 11:54:00,74.0,55.8,30.06,West,274,0.0,6.0,53,0.00,,---,0.00,VWS V14.01,2013-08-05 16:54:00,
2013-08-05 11:58:00,74.0,56.8,30.06,SSE,151,2.0,2.0,55,0.00,,---,0.00,VWS V14.01,2013-08-05 16:58:00,
2013-08-05 12:00:00,74.0,58.8,30.06,WSW,258,2.0,6.0,59,0.00,,---,0.00,VWS V14.01,2013-08-05 17:00:00,
2013-08-05 12:04:00,73.9,56.2,30.05,WNW,283,4.0,4.0,54,0.00,,---,0.00,VWS V14.01,2013-08-05 17:04:00,
2013-08-05 12:09:00,74.0,58.3,30.05,SW,219,3.0,4.0,58,0.00,,---,0.00,VWS V14.01,2013-08-05 17:09:00,
2013-08-05 12:14:00,74.0,57.3,30.05,West,281,2.0,4.0,56,0.00,,---,0.00,VWS V14.01,2013-08-05 17:14:00,
2013-08-05 12:19:00,73.6,57.9,30.05,North,354,2.0,4.0,58,0.00,,---,0.00,VWS V14.01,2013-08-05 17:19:00,
2013-08-05 12:24:00,73.5,57.3,30.04,West,269,1.0,4.0,57,0.00,,---,0.00,VWS V14.01,2013-08-05 17:24:00,
2013-08-05 12:29:00,73.4,55.8,30.04,SE,143,1.0,1.0,54,0.00,,---,0.00,VWS V14.01,2013-08-05 17:29:00,
2013-08-05 12:30:00,73.4,55.2,30.04,SW,232,1.0,4.0,53,0.00,,---,0.00,VWS V14.01,2013-08-05 17:30:00,
2013-08-05 12:34:00,73.6,55.4,30.04,NW,305,1.0,2.0,53,0.00,,---,0.00,VWS V14.01,2013-08-05 17:34:00,
2013-08-05 12:39:00,73.2,58.0,30.04,WNW,302,1.0,2.0,59,0.00,,---,0.00,VWS V14.01,2013-08-05 17:39:00,
2013-08-05 12:44:00,72.9,58.2,30.04,NW,308,0.0,2.0,60,0.00,,---,0.00,VWS V14.01,2013-08-05 17:44:00,
2013-08-05 12:50:00,73.0,58.3,30.04,West,264,0.0,2.0,60,0.00,,---,0.00,VWS V14.01,2013-08-05 17:50:00,
2013-08-05 12:54:00,72.6,61.0,30.03,West,264,0.0,2.0,67,0.00,,---,0.00,VWS V14.01,2013-08-05 17:54:00,
2013-08-05 13:00:00,72.5,58.3,30.03,ESE,116,0.0,0.0,61,0.00,,---,0.00,VWS V14.01,2013-08-05 18:00:00,
2013-08-05 13:05:00,72.0,58.3,30.03,WSW,245,1.0,3.0,62,0.00,,---,0.00,VWS V14.01,2013-08-05 18:05:00,
2013-08-05 13:10:00,72.2,57.1,30.02,SSW,211,0.0,3.0,59,0.00,,---,0.00,VWS V14.01,2013-08-05 18:10:00,
2013-08-05 13:15:00,72.7,56.1,30.02,WSW,249,1.0,3.0,56,0.00,,---,0.00,VWS V14.01,2013-08-05 18:15:00,
2013-08-05 13:20:00,72.8,57.2,30.02,SSE,166,0.0,3.0,58,0.00,,---,0.00,VWS V14.01,2013-08-05 18:20:00,
2013-08-05 13:26:00,72.7,57.1,30.03,SSW,205,0.0,3.0,58,0.00,,---,0.00,VWS V14.01,2013-08-05 18:26:00,
2013-08-05 13:30:00,72.8,57.7,30.03,SSW,204,0.0,3.0,59,0.00,,---,0.00,VWS V14.01,2013-08-05 18:30:00,
2013-08-05 13:31:00,72.7,58.0,30.03,SW,236,0.0,2.0,60,0.00,,---,0.00,VWS V14.01,2013-08-05 18:31:00,
2013-08-05 13:36:00,72.4,59.1,30.03,SE,146,0.0,2.0,63,0.00,,---,0.00,VWS V14.01,2013-08-05 18:36:00,
2013-08-05 13:41:00,71.8,59.0,30.02,SSE,147,0.0,2.0,64,0.00,,---,0.00,VWS V14.01,2013-08-05 18:41:00,
2013-08-05 13:46:00,71.3,58.1,30.03,WSW,250,0.0,2.0,63,0.00,,---,0.00,VWS V14.01,2013-08-05 18:46:00,
2013-08-05 13:51:00,71.3,59.8,30.03,WSW,250,0.0,2.0,67,0.00,,---,0.00,VWS V14.01,2013-08-05 18:51:00,
2013-08-05 13:56:00,71.1,59.6,30.03,WSW,250,0.0,2.0,67,0.00,,---,0.00,VWS V14.01,2013-08-05 18:56:00,
2013-08-05 14:00:00,70.9,59.0,30.04,WSW,250,1.0,2.0,66,0.00,,---,0.00,VWS V14.01,2013-08-05 19:00:00,
2013-08-05 14:01:00,70.1,61.0,30.04,WSW,250,1.0,1.0,73,0.00,,---,0.00,VWS V14.01,2013-08-05 19:01:00,
2013-08-05 14:06:00,69.0,60.8,30.04,WSW,250,0.0,1.0,75,0.00,,---,0.00,VWS V14.01,2013-08-05 19:06:00,
2013-08-05 14:11:00,68.3,61.2,30.04,WSW,250,0.0,1.0,78,0.00,,---,0.00,VWS V14.01,2013-08-05 19:11:00,
2013-08-05 14:16:00,67.9,61.9,30.03,WSW,250,0.0,1.0,81,0.00,,---,0.00,VWS V14.01,2013-08-05 19:16:00,
2013-08-05 14:22:00,67.7,62.0,30.04,WSW,250,0.0,1.0,82,0.00,,---,0.00,VWS V14.01,2013-08-05 19:22:00,
2013-08-05 14:27:00,67.8,62.8,30.03,WSW,250,0.0,1.0,84,0.00,,---,0.00,VWS V14.01,2013-08-05 19:27:00,
2013-08-05 14:30:00,67.8,62.8,30.03,WSW,250,0.0,1.0,84,0.00,,---,0.00,VWS V14.01,2013-08-05 19:30:00,
2013-08-05 14:32:00,67.8,62.5,30.03,WSW,250,0.0,0.0,83,0.00,,---,0.00,VWS V14.01,2013-08-05 19:32:00,
2013-08-05 14:37:00,68.0,62.7,30.03,WSW,250,0.0,0.0,83,0.00,,---,0.00,VWS V14.01,2013-08-05 19:37:00,
2013-08-05 14:42:00,68.4,63.4,30.03,WSW,250,0.0,0.0,84,0.00,,---,0.00,VWS V14.01,2013-08-05 19:42:00,
2013-08-05 14:47:00,68.8,63.8,30.03,WSW,250,0.0,1.0,84,0.00,,---,0.00,VWS V14.01,2013-08-05 19:47:00,
2013-08-05 14:52:00,69.0,63.3,30.03,WSW,250,0.0,1.0,82,0.00,,---,0.00,VWS V14.01,2013-08-05 19:52:00,
2013-08-05 14:57:00,69.4,63.3,30.03,WSW,250,0.0,1.0,81,0.00,,---,0.00,VWS V14.01,2013-08-05 19:57:00,
2013-08-05 15:00:00,69.4,63.3,30.03,WSW,250,0.0,1.0,81,0.00,,---,0.00,VWS V14.01,2013-08-05 20:00:00,
2013-08-05 15:03:00,69.7,62.5,30.03,WSW,250,0.0,0.0,78,0.00,,---,0.00,VWS V14.01,2013-08-05 20:03:00,
2013-08-05 15:08:00,70.1,62.6,30.04,WSW,250,0.0,0.0,77,0.00,,---,0.00,VWS V14.01,2013-08-05 20:08:00,
2013-08-05 15:13:00,70.5,63.7,30.03,WSW,250,0.0,0.0,79,0.00,,---,0.00,VWS V14.01,2013-08-05 20:13:00,
2013-08-05 15:18:00,70.7,63.5,30.03,WSW,250,0.0,0.0,78,0.00,,---,0.00,VWS V14.01,2013-08-05 20:18:00,
2013-08-05 15:23:00,71.2,62.9,30.03,WSW,250,0.0,0.0,75,0.00,,---,0.00,VWS V14.01,2013-08-05 20:23:00,
2013-08-05 15:28:00,71.6,62.9,30.03,WSW,250,0.0,0.0,74,0.00,,---,0.00,VWS V14.01,2013-08-05 20:28:00,
2013-08-05 15:30:00,71.6,63.6,30.03,WSW,250,0.0,0.0,76,0.00,,---,0.00,VWS V14.01,2013-08-05 20:30:00,
2013-08-05 15:33:00,71.6,62.9,30.02,WSW,250,0.0,0.0,74,0.00,,---,0.00,VWS V14.01,2013-08-05 20:33:00,
2013-08-05 15:38:00,71.7,62.6,30.02,WSW,250,0.0,0.0,73,0.00,,---,0.00,VWS V14.01,2013-08-05 20:38:00,
2013-08-05 15:43:00,71.6,61.7,30.01,SW,219,0.0,0.0,71,0.00,,---,0.00,VWS V14.01,2013-08-05 20:43:00,
2013-08-05 15:48:00,72.2,61.9,30.02,ESE,105,2.0,2.0,70,0.00,,---,0.00,VWS V14.01,2013-08-05 20:48:00,
2013-08-05 15:53:00,72.7,61.5,30.02,SSW,208,0.0,2.0,68,0.00,,---,0.00,VWS V14.01,2013-08-05 20:53:00,
2013-08-05 15:59:00,73.2,61.6,30.01,SSW,207,0.0,1.0,67,0.00,,---,0.00,VWS V14.01,2013-08-05 20:59:00,
2013-08-05 16:00:00,73.0,62.2,30.01,SSW,207,0.0,2.0,69,0.00,,---,0.00,VWS V14.01,2013-08-05 21:00:00,
2013-08-05 16:04:00,73.4,60.9,30.01,SSW,207,0.0,1.0,65,0.00,,---,0.00,VWS V14.01,2013-08-05 21:04:00,
2013-08-05 16:09:00,73.7,62.1,30.01,SE,131,0.0,1.0,67,0.00,,---,0.00,VWS V14.01,2013-08-05 21:09:00,
2013-08-05 16:15:00,73.9,61.0,30.01,SSW,208,0.0,2.0,64,0.00,,---,0.00,VWS V14.01,2013-08-05 21:15:00,
2013-08-05 16:20:00,74.1,61.2,30.00,SW,221,0.0,2.0,64,0.00,,---,0.00,VWS V14.01,2013-08-05 21:20:00,
2013-08-05 16:25:00,74.1,59.8,30.01,NW,316,0.0,2.0,61,0.00,,---,0.00,VWS V14.01,2013-08-05 21:25:00,
2013-08-05 16:30:00,74.2,61.7,30.00,SE,133,1.0,1.0,65,0.00,,---,0.00,VWS V14.01,2013-08-05 21:30:00,
2013-08-05 16:35:00,74.1,59.8,30.00,East,101,2.0,3.0,61,0.00,,---,0.00,VWS V14.01,2013-08-05 21:35:00,
2013-08-05 16:40:00,73.6,60.7,30.00,ESE,114,0.0,3.0,64,0.00,,---,0.00,VWS V14.01,2013-08-05 21:40:00,
2013-08-05 16:45:00,73.4,59.6,30.00,SW,232,0.0,3.0,62,0.00,,---,0.00,VWS V14.01,2013-08-05 21:45:00,
2013-08-05 16:50:00,73.3,59.5,30.01,SE,137,0.0,3.0,62,0.00,,---,0.00,VWS V14.01,2013-08-05 21:50:00,
2013-08-05 16:56:00,72.9,61.3,30.01,SE,137,0.0,3.0,67,0.00,,---,0.00,VWS V14.01,2013-08-05 21:56:00,
2013-08-05 17:00:00,72.5,61.8,30.01,SE,136,0.0,3.0,69,0.00,,---,0.00,VWS V14.01,2013-08-05 22:00:00,
2013-08-05 17:01:00,71.8,62.3,30.01,SE,136,0.0,1.0,72,0.00,,---,0.00,VWS V14.01,2013-08-05 22:01:00,
2013-08-05 17:06:00,70.7,63.1,30.00,SE,136,0.0,1.0,77,0.00,,---,0.00,VWS V14.01,2013-08-05 22:06:00,
2013-08-05 17:11:00,70.0,63.2,30.00,SE,136,0.0,1.0,79,0.00,,---,0.00,VWS V14.01,2013-08-05 22:11:00,
2013-08-05 17:16:00,69.6,63.5,30.00,SE,136,0.0,1.0,81,0.00,,---,0.00,VWS V14.01,2013-08-05 22:16:00,
2013-08-05 17:21:00,69.3,63.6,30.00,SE,136,0.0,1.0,82,0.00,,---,0.00,VWS V14.01,2013-08-05 22:21:00,
2013-08-05 17:26:00,69.0,62.6,30.00,SE,136,0.0,1.0,80,0.00,,---,0.00,VWS V14.01,2013-08-05 22:26:00,
2013-08-05 17:30:00,69.0,62.9,30.00,SE,136,0.0,1.0,81,0.00,,---,0.00,VWS V14.01,2013-08-05 22:30:00,
2013-08-05 17:31:00,68.6,62.5,30.00,SE,136,0.0,1.0,81,0.00,,---,0.00,VWS V14.01,2013-08-05 22:31:00,
2013-08-05 17:37:00,68.2,62.8,29.99,SE,136,0.0,1.0,83,0.00,,---,0.00,VWS V14.01,2013-08-05 22:37:00,
2013-08-05 17:42:00,67.9,62.9,29.99,SE,136,0.0,1.0,84,0.00,,---,0.00,VWS V14.01,2013-08-05 22:42:00,
2013-08-05 17:47:00,67.6,62.3,30.00,SE,136,0.0,1.0,83,0.00,,---,0.00,VWS V14.01,2013-08-05 22:47:00,
2013-08-05 17:52:00,67.5,62.5,30.00,SE,136,0.0,1.0,84,0.00,,---,0.00,VWS V14.01,2013-08-05 22:52:00,
2013-08-05 17:57:00,67.2,61.9,30.00,SE,137,0.0,1.0,83,0.00,,---,0.00,VWS V14.01,2013-08-05 22:57:00,
2013-08-05 18:00:00,67.2,61.9,30.00,SE,136,0.0,1.0,83,0.00,,---,0.00,VWS V14.01,2013-08-05 23:00:00,
2013-08-05 18:02:00,66.9,61.9,30.00,SE,137,0.0,0.0,84,0.00,,---,0.00,VWS V14.01,2013-08-05 23:02:00,
2013-08-05 18:07:00,66.7,61.7,30.00,SE,137,0.0,0.0,84,0.00,,---,0.00,VWS V14.01,2013-08-05 23:07:00,
2013-08-05 18:12:00,66.6,61.6,29.99,SE,137,0.0,0.0,84,0.00,,---,0.00,VWS V14.01,2013-08-05 23:12:00,
2013-08-05 18:18:00,66.5,61.5,29.99,SE,137,0.0,0.0,84,0.00,,---,0.00,VWS V14.01,2013-08-05 23:18:00,
2013-08-05 18:23:00,66.5,61.5,29.99,SE,136,0.0,0.0,84,0.00,,---,0.00,VWS V14.01,2013-08-05 23:23:00,
2013-08-05 18:28:00,66.4,61.8,29.99,SE,136,0.0,0.0,85,0.00,,---,0.00,VWS V14.01,2013-08-05 23:28:00,
2013-08-05 18:30:00,66.4,61.8,29.99,SE,137,0.0,0.0,85,0.00,,---,0.00,VWS V14.01,2013-08-05 23:30:00,
2013-08-05 18:33:00,66.2,61.2,29.99,SE,136,0.0,0.0,84,0.00,,---,0.00,VWS V14.01,2013-08-05 23:33:00,
2013-08-05 18:38:00,66.2,61.6,29.99,SE,137,0.0,0.0,85,0.00,,---,0.00,VWS V14.01,2013-08-05 23:38:00,
2013-08-05 18:43:00,66.0,61.0,29.99,SE,136,0.0,0.0,84,0.00,,---,0.00,VWS V14.01,2013-08-05 23:43:00,
2013-08-05 18:49:00,66.1,61.5,29.99,SE,137,0.0,0.0,85,0.00,,---,0.00,VWS V14.01,2013-08-05 23:49:00,
2013-08-05 18:54:00,66.0,61.0,29.98,SE,136,0.0,0.0,84,0.00,,---,0.00,VWS V14.01,2013-08-05 23:54:00,
2013-08-05 18:59:00,65.9,61.3,29.98,SE,136,0.0,0.0,85,0.00,,---,0.00,VWS V14.01,2013-08-05 23:59:00,
2013-08-05 19:00:00,65.9,61.3,29.98,SE,136,0.0,0.0,85,0.00,,---,0.00,VWS V14.01,2013-08-06 00:00:00,
2013-08-05 19:04:00,65.8,61.2,29.98,SE,136,0.0,0.0,85,0.00,,---,0.00,VWS V14.01,2013-08-06 00:04:00,
2013-08-05 19:09:00,65.8,61.2,29.98,SE,136,0.0,0.0,85,0.00,,---,0.00,VWS V14.01,2013-08-06 00:09:00,
2013-08-05 19:14:00,65.7,61.1,29.98,SE,137,0.0,0.0,85,0.00,,---,0.00,VWS V14.01,2013-08-06 00:14:00,
2013-08-05 19:19:00,65.7,61.1,29.98,SE,137,0.0,0.0,85,0.00,,---,0.00,VWS V14.01,2013-08-06 00:19:00,
2013-08-05 19:24:00,65.7,60.7,29.98,SE,137,0.0,0.0,84,0.00,,---,0.00,VWS V14.01,2013-08-06 00:24:00,
2013-08-05 19:29:00,65.7,60.7,29.98,SE,136,0.0,0.0,84,0.00,,---,0.00,VWS V14.01,2013-08-06 00:29:00,
2013-08-05 19:30:00,65.7,60.7,29.98,SE,136,0.0,0.0,84,0.00,,---,0.00,VWS V14.01,2013-08-06 00:30:00,
2013-08-05 19:34:00,65.7,60.7,29.98,SE,136,0.0,0.0,84,0.00,,---,0.00,VWS V14.01,2013-08-06 00:34:00,
2013-08-05 19:39:00,65.8,60.8,29.97,SE,137,0.0,0.0,84,0.00,,---,0.00,VWS V14.01,2013-08-06 00:39:00,
2013-08-05 19:44:00,65.9,60.6,29.98,SE,137,0.0,0.0,83,0.00,,---,0.00,VWS V14.01,2013-08-06 00:44:00,
2013-08-05 19:49:00,65.8,60.5,29.98,SE,137,0.0,0.0,83,0.00,,---,0.00,VWS V14.01,2013-08-06 00:49:00,
2013-08-05 19:54:00,65.7,60.4,29.98,SE,136,0.0,0.0,83,0.00,,---,0.00,VWS V14.01,2013-08-06 00:54:00,
2013-08-05 19:59:00,65.8,60.5,29.98,SE,136,0.0,0.0,83,0.00,,---,0.00,VWS V14.01,2013-08-06 00:59:00,
2013-08-05 20:00:00,65.8,60.5,29.98,SE,137,0.0,0.0,83,0.00,,---,0.00,VWS V14.01,2013-08-06 01:00:00,
2013-08-05 20:04:00,65.9,60.6,29.98,SE,137,0.0,0.0,83,0.00,,---,0.00,VWS V14.01,2013-08-06 01:04:00,
2013-08-05 20:10:00,65.9,60.6,29.97,SE,137,0.0,0.0,83,0.00,,---,0.00,VWS V14.01,2013-08-06 01:10:00,
2013-08-05 20:15:00,65.9,60.6,29.97,SE,136,0.0,0.0,83,0.00,,---,0.00,VWS V14.01,2013-08-06 01:15:00,
2013-08-05 20:20:00,65.9,60.3,29.97,SE,137,0.0,0.0,82,0.00,,---,0.00,VWS V14.01,2013-08-06 01:20:00,
2013-08-05 20:25:00,66.0,60.3,29.97,SE,137,0.0,0.0,82,0.00,,---,0.00,VWS V14.01,2013-08-06 01:25:00,
2013-08-05 20:30:00,66.0,60.3,29.97,SE,136,0.0,0.0,82,0.00,,---,0.00,VWS V14.01,2013-08-06 01:30:00,
2013-08-05 20:35:00,66.0,60.3,29.97,SE,137,0.0,0.0,82,0.00,,---,0.00,VWS V14.01,2013-08-06 01:35:00,
2013-08-05 20:40:00,66.0,60.3,29.97,SE,137,0.0,0.0,82,0.00,,---,0.00,VWS V14.01,2013-08-06 01:40:00,
2013-08-05 20:45:00,66.1,60.1,29.97,SE,137,0.0,0.0,81,0.00,,---,0.00,VWS V14.01,2013-08-06 01:45:00,
2013-08-05 20:50:00,66.1,60.1,29.97,SE,136,0.0,0.0,81,0.00,,---,0.00,VWS V14.01,2013-08-06 01:50:00,
2013-08-05 20:55:00,66.1,60.1,29.97,SE,136,0.0,0.0,81,0.00,,---,0.00,VWS V14.01,2013-08-06 01:55:00,
2013-08-05 21:00:00,66.1,60.1,29.97,SE,137,0.0,0.0,81,0.00,,---,0.00,VWS V14.01,2013-08-06 02:00:00,
2013-08-05 21:05:00,66.2,60.2,29.97,SE,136,0.0,0.0,81,0.00,,---,0.00,VWS V14.01,2013-08-06 02:05:00,
2013-08-05 21:10:00,66.2,60.2,29.97,SE,137,0.0,0.0,81,0.00,,---,0.00,VWS V14.01,2013-08-06 02:10:00,
2013-08-05 21:15:00,66.3,60.0,29.97,SE,136,0.0,0.0,80,0.00,,---,0.00,VWS V14.01,2013-08-06 02:15:00,
2013-08-05 21:20:00,66.3,60.0,29.97,SE,137,0.0,0.0,80,0.00,,---,0.00,VWS V14.01,2013-08-06 02:20:00,
2013-08-05 21:26:00,66.3,60.0,29.97,SE,137,0.0,0.0,80,0.00,,---,0.00,VWS V14.01,2013-08-06 02:26:00,
2013-08-05 21:30:00,66.4,60.0,29.97,ESE,106,0.0,0.0,80,0.00,,---,0.00,VWS V14.01,2013-08-06 02:30:00,
2013-08-05 21:31:00,66.4,60.0,29.97,SSE,149,0.0,0.0,80,0.00,,---,0.00,VWS V14.01,2013-08-06 02:31:00,
2013-08-05 21:36:00,66.4,59.7,29.97,East,94,0.0,0.0,79,0.00,,---,0.00,VWS V14.01,2013-08-06 02:36:00,
2013-08-05 21:41:00,66.5,59.8,29.97,NNE,12,0.0,0.0,79,0.00,,---,0.00,VWS V14.01,2013-08-06 02:41:00,
2013-08-05 21:46:00,66.5,59.8,29.97,NNE,12,0.0,0.0,79,0.00,,---,0.00,VWS V14.01,2013-08-06 02:46:00,
2013-08-05 21:51:00,66.5,59.8,29.97,NNE,27,0.0,0.0,79,0.00,,---,0.00,VWS V14.01,2013-08-06 02:51:00,
2013-08-05 21:56:00,66.6,59.9,29.96,East,85,0.0,1.0,79,0.00,,---,0.00,VWS V14.01,2013-08-06 02:56:00,
2013-08-05 22:00:00,66.6,59.9,29.96,East,98,0.0,3.0,79,0.00,,---,0.00,VWS V14.01,2013-08-06 03:00:00,
2013-08-05 22:01:00,66.7,59.6,29.96,East,88,1.0,3.0,78,0.00,,---,0.00,VWS V14.01,2013-08-06 03:01:00,
2013-08-05 22:06:00,66.7,59.6,29.96,ESE,108,0.0,3.0,78,0.00,,---,0.00,VWS V14.01,2013-08-06 03:06:00,
2013-08-05 22:11:00,66.8,59.7,29.96,East,82,0.0,3.0,78,0.00,,---,0.00,VWS V14.01,2013-08-06 03:11:00,
2013-08-05 22:16:00,66.6,59.9,29.96,East,82,0.0,3.0,79,0.00,,---,0.00,VWS V14.01,2013-08-06 03:16:00,
2013-08-05 22:21:00,66.5,59.8,29.96,ESE,109,0.0,3.0,79,0.00,,---,0.00,VWS V14.01,2013-08-06 03:21:00,
2013-08-05 22:26:00,66.4,59.7,29.96,ESE,109,0.0,3.0,79,0.00,,---,0.00,VWS V14.01,2013-08-06 03:26:00,
2013-08-05 22:30:00,66.4,59.7,29.96,ESE,108,0.0,3.0,79,0.00,,---,0.00,VWS V14.01,2013-08-06 03:30:00,
2013-08-05 22:31:00,66.3,59.6,29.96,East,79,0.0,0.0,79,0.00,,---,0.00,VWS V14.01,2013-08-06 03:31:00,
2013-08-05 22:36:00,66.2,59.5,29.96,East,79,0.0,0.0,79,0.00,,---,0.00,VWS V14.01,2013-08-06 03:36:00,
2013-08-05 22:41:00,66.1,59.4,29.96,East,79,0.0,0.0,79,0.00,,---,0.00,VWS V14.01,2013-08-06 03:41:00,
2013-08-05 22:47:00,66.1,59.4,29.96,ESE,121,0.0,0.0,79,0.00,,---,0.00,VWS V14.01,2013-08-06 03:47:00,
2013-08-05 22:52:00,66.1,59.8,29.96,SE,136,0.0,0.0,80,0.00,,---,0.00,VWS V14.01,2013-08-06 03:52:00,
2013-08-05 22:57:00,66.1,59.8,29.96,SE,124,0.0,0.0,80,0.00,,---,0.00,VWS V14.01,2013-08-06 03:57:00,
2013-08-05 23:00:00,66.0,59.7,29.96,SE,124,0.0,0.0,80,0.00,,---,0.00,VWS V14.01,2013-08-06 04:00:00,
2013-08-05 23:01:00,65.9,59.6,29.96,SE,124,0.0,0.0,80,0.00,,---,0.00,VWS V14.01,2013-08-06 04:01:00,
2013-08-05 23:06:00,65.8,59.5,29.96,SE,124,0.0,0.0,80,0.00,,---,0.00,VWS V14.01,2013-08-06 04:06:00,
2013-08-05 23:11:00,65.7,59.4,29.96,SE,124,0.0,0.0,80,0.00,,---,0.00,VWS V14.01,2013-08-06 04:11:00,
2013-08-05 23:16:00,65.6,59.6,29.96,SE,124,0.0,0.0,81,0.00,,---,0.00,VWS V14.01,2013-08-06 04:16:00,
2013-08-05 23:21:00,65.6,59.6,29.96,SE,124,0.0,0.0,81,0.00,,---,0.00,VWS V14.01,2013-08-06 04:21:00,
2013-08-05 23:26:00,65.6,59.6,29.96,ESE,123,0.0,0.0,81,0.00,,---,0.00,VWS V14.01,2013-08-06 04:26:00,
2013-08-05 23:30:00,65.6,59.6,29.96,ESE,121,0.0,0.0,81,0.00,,---,0.00,VWS V14.01,2013-08-06 04:30:00,
2013-08-05 23:31:00,65.6,60.0,29.97,ESE,122,0.0,0.0,82,0.00,,---,0.00,VWS V14.01,2013-08-06 04:31:00,
2013-08-05 23:36:00,65.7,60.4,29.96,ESE,122,0.0,0.0,83,0.00,,---,0.00,VWS V14.01,2013-08-06 04:36:00,
2013-08-05 23:41:00,65.7,60.4,29.96,ESE,122,0.0,0.0,83,0.00,,---,0.00,VWS V14.01,2013-08-06 04:41:00,
2013-08-05 23:46:00,65.7,60.4,29.97,SW,219,0.0,0.0,83,0.00,,---,0.00,VWS V14.01,2013-08-06 04:46:00,
2013-08-05 23:51:00,65.6,60.3,29.97,SW,219,0.0,0.0,83,0.00,,---,0.00,VWS V14.01,2013-08-06 04:51:00,
2013-08-05 23:56:00,65.6,60.3,29.97,SW,219,0.0,0.0,83,0.00,,---,0.00,VWS V14.01,2013-08-06 04:56:00,